DAOR/CBH METAR and TAF weather

Enter ICAO airport designator
Station Type Date Time Source
DAOR METAR 2018/12/12 05:00 UTC NOAA

DAOR 120500Z 07002KT CAVOK 06/M01 Q1023


Station Type Date Time Source
DAOR Decoded METAR 2018/12/12 05:00 UTC NOAA

Bechar, Algeria (DAOR) 31-37N 002-14W 773M
Dec 12, 2018 - 12:00 AM EST / 2018.12.12 0500 UTC
Wind: from the ENE (070 degrees) at 2 MPH (2 KT):0
Visibility: greater than 7 mile(s):0
Temperature: 42 F (6 C)
Dew Point: 30 F (-1 C)
Relative Humidity: 60%
Pressure (altimeter): 30.21 in. Hg (1023 hPa)
ob: DAOR 120500Z 07002KT CAVOK 06/M01 Q1023
cycle: 5

Station Type Date Time Source
DAOR TAF 2017/11/09 18:03 UTC NOAA

TAF DAOR 091700Z 0918/1009 35010KT 6000 FEW033 SCT100
TEMPO 0918/0924 3000 BLSA PROB40
TEMPO 0918/0924 35020G35KT 2000 -TSRA FEW030CB


Example: see airport list